<?xml version='1.0' encoding='UTF-8'?>
<gpx version="1.1" creator="https://www.komoot.de" xmlns="http://www.topografix.com/GPX/1/1" xmlns:xsi="http://www.w3.org/2001/XMLSchema-instance" xsi:schemaLocation="http://www.topografix.com/GPX/1/1 http://www.topografix.com/GPX/1/1/gpx.xsd">
  <metadata>
    <name>Dondena - Bese - Lac Miserin</name>
    <author>
      <link href="https://www.komoot.de">
        <text>komoot</text>
        <type>text/html</type>
      </link>
    </author>
  </metadata>
  <trk>
    <name>Dondena - Bese - Lac Miserin</name>
    <trkseg>
      <trkpt lat="45.616481" lon="7.555677">
        <ele>2100.466579</ele>
        <time>2022-11-14T08:51:48.493Z</time>
      </trkpt>
      <trkpt lat="45.616417" lon="7.555386">
        <ele>2100.466579</ele>
        <time>2022-11-14T08:52:13.825Z</time>
      </trkpt>
      <trkpt lat="45.616563" lon="7.555075">
        <ele>2100.466579</ele>
        <time>2022-11-14T08:52:43.238Z</time>
      </trkpt>
      <trkpt lat="45.616641" lon="7.554570">
        <ele>2100.466579</ele>
        <time>2022-11-14T08:53:26.120Z</time>
      </trkpt>
      <trkpt lat="45.616613" lon="7.554341">
        <ele>2101.491293</ele>
        <time>2022-11-14T08:53:46.277Z</time>
      </trkpt>
      <trkpt lat="45.616580" lon="7.554304">
        <ele>2101.919453</ele>
        <time>2022-11-14T08:53:51.237Z</time>
      </trkpt>
      <trkpt lat="45.616530" lon="7.554264">
        <ele>2102.504409</ele>
        <time>2022-11-14T08:53:58.063Z</time>
      </trkpt>
      <trkpt lat="45.616398" lon="7.554114">
        <ele>2104.225901</ele>
        <time>2022-11-14T08:54:20.353Z</time>
      </trkpt>
      <trkpt lat="45.616324" lon="7.553847">
        <ele>2106.276796</ele>
        <time>2022-11-14T08:54:44.590Z</time>
      </trkpt>
      <trkpt lat="45.616112" lon="7.553967">
        <ele>2108.604664</ele>
        <time>2022-11-14T08:55:20.584Z</time>
      </trkpt>
      <trkpt lat="45.616054" lon="7.553694">
        <ele>2110.642136</ele>
        <time>2022-11-14T08:55:46.897Z</time>
      </trkpt>
      <trkpt lat="45.615654" lon="7.553316">
        <ele>2115.537414</ele>
        <time>2022-11-14T08:56:54.754Z</time>
      </trkpt>
      <trkpt lat="45.615451" lon="7.553060">
        <ele>2118.301006</ele>
        <time>2022-11-14T08:57:31.701Z</time>
      </trkpt>
      <trkpt lat="45.615176" lon="7.553078">
        <ele>2122.734600</ele>
        <time>2022-11-14T08:58:10.580Z</time>
      </trkpt>
      <trkpt lat="45.615130" lon="7.553144">
        <ele>2123.873225</ele>
        <time>2022-11-14T08:58:21.757Z</time>
      </trkpt>
      <trkpt lat="45.614934" lon="7.553202">
        <ele>2127.370207</ele>
        <time>2022-11-14T08:59:04.363Z</time>
      </trkpt>
      <trkpt lat="45.614783" lon="7.553137">
        <ele>2130.125384</ele>
        <time>2022-11-14T08:59:36.131Z</time>
      </trkpt>
      <trkpt lat="45.614150" lon="7.553077">
        <ele>2141.209060</ele>
        <time>2022-11-14T09:02:01.636Z</time>
      </trkpt>
      <trkpt lat="45.613871" lon="7.552857">
        <ele>2146.775897</ele>
        <time>2022-11-14T09:03:22.943Z</time>
      </trkpt>
      <trkpt lat="45.613475" lon="7.552784">
        <ele>2154.524981</ele>
        <time>2022-11-14T09:05:09.364Z</time>
      </trkpt>
      <trkpt lat="45.612877" lon="7.552337">
        <ele>2168.921186</ele>
        <time>2022-11-14T09:08:00.938Z</time>
      </trkpt>
      <trkpt lat="45.612310" lon="7.552127">
        <ele>2181.416739</ele>
        <time>2022-11-14T09:10:34.949Z</time>
      </trkpt>
      <trkpt lat="45.612111" lon="7.551797">
        <ele>2187.918699</ele>
        <time>2022-11-14T09:11:35.729Z</time>
      </trkpt>
      <trkpt lat="45.612021" lon="7.551697">
        <ele>2189.795810</ele>
        <time>2022-11-14T09:11:58.637Z</time>
      </trkpt>
      <trkpt lat="45.611737" lon="7.551706">
        <ele>2193.906601</ele>
        <time>2022-11-14T09:12:55.454Z</time>
      </trkpt>
      <trkpt lat="45.611372" lon="7.551320">
        <ele>2200.476730</ele>
        <time>2022-11-14T09:14:17.548Z</time>
      </trkpt>
      <trkpt lat="45.611269" lon="7.551294">
        <ele>2201.990308</ele>
        <time>2022-11-14T09:14:35.129Z</time>
      </trkpt>
      <trkpt lat="45.610813" lon="7.551631">
        <ele>2209.418762</ele>
        <time>2022-11-14T09:15:46.120Z</time>
      </trkpt>
      <trkpt lat="45.610776" lon="7.551889">
        <ele>2212.084795</ele>
        <time>2022-11-14T09:16:10.874Z</time>
      </trkpt>
      <trkpt lat="45.610696" lon="7.552067">
        <ele>2214.226527</ele>
        <time>2022-11-14T09:16:29.573Z</time>
      </trkpt>
      <trkpt lat="45.610332" lon="7.552093">
        <ele>2216.602710</ele>
        <time>2022-11-14T09:17:15.150Z</time>
      </trkpt>
      <trkpt lat="45.610295" lon="7.552165">
        <ele>2216.966294</ele>
        <time>2022-11-14T09:17:23.036Z</time>
      </trkpt>
      <trkpt lat="45.610316" lon="7.552707">
        <ele>2219.175439</ele>
        <time>2022-11-14T09:18:09.906Z</time>
      </trkpt>
      <trkpt lat="45.610152" lon="7.553250">
        <ele>2221.582446</ele>
        <time>2022-11-14T09:18:59.488Z</time>
      </trkpt>
      <trkpt lat="45.609954" lon="7.553325">
        <ele>2222.774101</ele>
        <time>2022-11-14T09:19:23.021Z</time>
      </trkpt>
      <trkpt lat="45.609785" lon="7.553173">
        <ele>2223.935704</ele>
        <time>2022-11-14T09:19:45.411Z</time>
      </trkpt>
      <trkpt lat="45.609702" lon="7.552891">
        <ele>2225.204317</ele>
        <time>2022-11-14T09:20:14.965Z</time>
      </trkpt>
      <trkpt lat="45.609685" lon="7.552704">
        <ele>2226.260926</ele>
        <time>2022-11-14T09:20:33.213Z</time>
      </trkpt>
      <trkpt lat="45.609629" lon="7.552098">
        <ele>2229.685968</ele>
        <time>2022-11-14T09:21:31.839Z</time>
      </trkpt>
      <trkpt lat="45.609640" lon="7.551766">
        <ele>2231.548319</ele>
        <time>2022-11-14T09:22:04.513Z</time>
      </trkpt>
      <trkpt lat="45.609591" lon="7.551545">
        <ele>2232.847339</ele>
        <time>2022-11-14T09:22:28.482Z</time>
      </trkpt>
      <trkpt lat="45.609585" lon="7.551181">
        <ele>2234.887475</ele>
        <time>2022-11-14T09:23:11.320Z</time>
      </trkpt>
      <trkpt lat="45.609466" lon="7.550895">
        <ele>2236.752040</ele>
        <time>2022-11-14T09:23:55.596Z</time>
      </trkpt>
      <trkpt lat="45.609476" lon="7.550771">
        <ele>2237.451442</ele>
        <time>2022-11-14T09:24:10.819Z</time>
      </trkpt>
      <trkpt lat="45.609569" lon="7.550669">
        <ele>2238.390345</ele>
        <time>2022-11-14T09:24:32.560Z</time>
      </trkpt>
      <trkpt lat="45.609583" lon="7.550570">
        <ele>2238.956284</ele>
        <time>2022-11-14T09:24:48.350Z</time>
      </trkpt>
      <trkpt lat="45.609569" lon="7.550114">
        <ele>2246.949618</ele>
        <time>2022-11-14T09:25:48.630Z</time>
      </trkpt>
      <trkpt lat="45.609866" lon="7.550090">
        <ele>2255.845447</ele>
        <time>2022-11-14T09:26:49.421Z</time>
      </trkpt>
      <trkpt lat="45.609592" lon="7.549538">
        <ele>2270.004724</ele>
        <time>2022-11-14T09:29:05.957Z</time>
      </trkpt>
      <trkpt lat="45.609305" lon="7.549282">
        <ele>2280.121125</ele>
        <time>2022-11-14T09:31:20.436Z</time>
      </trkpt>
      <trkpt lat="45.609262" lon="7.549087">
        <ele>2284.398329</ele>
        <time>2022-11-14T09:32:17.949Z</time>
      </trkpt>
      <trkpt lat="45.609090" lon="7.548902">
        <ele>2290.835287</ele>
        <time>2022-11-14T09:33:49.075Z</time>
      </trkpt>
      <trkpt lat="45.608703" lon="7.548646">
        <ele>2308.597753</ele>
        <time>2022-11-14T09:36:48.757Z</time>
      </trkpt>
      <trkpt lat="45.608516" lon="7.548343">
        <ele>2321.172666</ele>
        <time>2022-11-14T09:38:53.072Z</time>
      </trkpt>
      <trkpt lat="45.608713" lon="7.547960">
        <ele>2335.967315</ele>
        <time>2022-11-14T09:41:10.808Z</time>
      </trkpt>
      <trkpt lat="45.608820" lon="7.547578">
        <ele>2348.773220</ele>
        <time>2022-11-14T09:43:07.686Z</time>
      </trkpt>
      <trkpt lat="45.608754" lon="7.547200">
        <ele>2360.897942</ele>
        <time>2022-11-14T09:45:00.022Z</time>
      </trkpt>
      <trkpt lat="45.608776" lon="7.546813">
        <ele>2372.981575</ele>
        <time>2022-11-14T09:46:53.057Z</time>
      </trkpt>
      <trkpt lat="45.608698" lon="7.545882">
        <ele>2393.322042</ele>
        <time>2022-11-14T09:51:17.797Z</time>
      </trkpt>
      <trkpt lat="45.608561" lon="7.545183">
        <ele>2408.986721</ele>
        <time>2022-11-14T09:53:41.105Z</time>
      </trkpt>
      <trkpt lat="45.608255" lon="7.544479">
        <ele>2426.872172</ele>
        <time>2022-11-14T09:56:17.891Z</time>
      </trkpt>
      <trkpt lat="45.608117" lon="7.543267">
        <ele>2442.916992</ele>
        <time>2022-11-14T09:59:57.631Z</time>
      </trkpt>
      <trkpt lat="45.607972" lon="7.542714">
        <ele>2450.236398</ele>
        <time>2022-11-14T10:01:31.427Z</time>
      </trkpt>
      <trkpt lat="45.607750" lon="7.541980">
        <ele>2460.147320</ele>
        <time>2022-11-14T10:03:22.624Z</time>
      </trkpt>
      <trkpt lat="45.607445" lon="7.540977">
        <ele>2466.436564</ele>
        <time>2022-11-14T10:05:28.822Z</time>
      </trkpt>
      <trkpt lat="45.607262" lon="7.540703">
        <ele>2468.512473</ele>
        <time>2022-11-14T10:06:09.936Z</time>
      </trkpt>
      <trkpt lat="45.607241" lon="7.540497">
        <ele>2469.653264</ele>
        <time>2022-11-14T10:06:31.656Z</time>
      </trkpt>
      <trkpt lat="45.607111" lon="7.540116">
        <ele>2471.976227</ele>
        <time>2022-11-14T10:07:16.000Z</time>
      </trkpt>
      <trkpt lat="45.607112" lon="7.539744">
        <ele>2474.014787</ele>
        <time>2022-11-14T10:07:54.155Z</time>
      </trkpt>
      <trkpt lat="45.607059" lon="7.539539">
        <ele>2475.081727</ele>
        <time>2022-11-14T10:08:16.022Z</time>
      </trkpt>
      <trkpt lat="45.607016" lon="7.538810">
        <ele>2477.913441</ele>
        <time>2022-11-14T10:09:30.637Z</time>
      </trkpt>
      <trkpt lat="45.606952" lon="7.538402">
        <ele>2479.531879</ele>
        <time>2022-11-14T10:10:12.516Z</time>
      </trkpt>
      <trkpt lat="45.606798" lon="7.537947">
        <ele>2481.488318</ele>
        <time>2022-11-14T10:11:04.355Z</time>
      </trkpt>
      <trkpt lat="45.606702" lon="7.536794">
        <ele>2487.353336</ele>
        <time>2022-11-14T10:13:07.981Z</time>
      </trkpt>
      <trkpt lat="45.606784" lon="7.536470">
        <ele>2490.133450</ele>
        <time>2022-11-14T10:13:47.471Z</time>
      </trkpt>
      <trkpt lat="45.606800" lon="7.535936">
        <ele>2494.446144</ele>
        <time>2022-11-14T10:14:51.320Z</time>
      </trkpt>
      <trkpt lat="45.606747" lon="7.535727">
        <ele>2496.239901</ele>
        <time>2022-11-14T10:15:20.251Z</time>
      </trkpt>
      <trkpt lat="45.606737" lon="7.535376">
        <ele>2499.074403</ele>
        <time>2022-11-14T10:16:06.778Z</time>
      </trkpt>
      <trkpt lat="45.606823" lon="7.535226">
        <ele>2500.639254</ele>
        <time>2022-11-14T10:16:35.734Z</time>
      </trkpt>
      <trkpt lat="45.606930" lon="7.534389">
        <ele>2508.271058</ele>
        <time>2022-11-14T10:18:32.376Z</time>
      </trkpt>
      <trkpt lat="45.606946" lon="7.533421">
        <ele>2519.018233</ele>
        <time>2022-11-14T10:20:55.639Z</time>
      </trkpt>
      <trkpt lat="45.606876" lon="7.533187">
        <ele>2521.842973</ele>
        <time>2022-11-14T10:21:38.485Z</time>
      </trkpt>
      <trkpt lat="45.606841" lon="7.532813">
        <ele>2526.031114</ele>
        <time>2022-11-14T10:22:36.332Z</time>
      </trkpt>
      <trkpt lat="45.606884" lon="7.532484">
        <ele>2529.745989</ele>
        <time>2022-11-14T10:23:24.722Z</time>
      </trkpt>
      <trkpt lat="45.606867" lon="7.532222">
        <ele>2532.666505</ele>
        <time>2022-11-14T10:24:07.447Z</time>
      </trkpt>
      <trkpt lat="45.606673" lon="7.531257">
        <ele>2541.748877</ele>
        <time>2022-11-14T10:26:28.336Z</time>
      </trkpt>
      <trkpt lat="45.606394" lon="7.530656">
        <ele>2548.071887</ele>
        <time>2022-11-14T10:27:57.368Z</time>
      </trkpt>
      <trkpt lat="45.606102" lon="7.530235">
        <ele>2553.268915</ele>
        <time>2022-11-14T10:29:11.901Z</time>
      </trkpt>
      <trkpt lat="45.605972" lon="7.529929">
        <ele>2556.407318</ele>
        <time>2022-11-14T10:29:54.170Z</time>
      </trkpt>
      <trkpt lat="45.605686" lon="7.529548">
        <ele>2559.101881</ele>
        <time>2022-11-14T10:30:58.306Z</time>
      </trkpt>
      <trkpt lat="45.604992" lon="7.528801">
        <ele>2564.953765</ele>
        <time>2022-11-14T10:33:13.351Z</time>
      </trkpt>
      <trkpt lat="45.604718" lon="7.528545">
        <ele>2567.158702</ele>
        <time>2022-11-14T10:34:01.270Z</time>
      </trkpt>
      <trkpt lat="45.603926" lon="7.528025">
        <ele>2569.781273</ele>
        <time>2022-11-14T10:36:00.202Z</time>
      </trkpt>
      <trkpt lat="45.602317" lon="7.526751">
        <ele>2572.861624</ele>
        <time>2022-11-14T10:39:57.968Z</time>
      </trkpt>
      <trkpt lat="45.601995" lon="7.526171">
        <ele>2573.677773</ele>
        <time>2022-11-14T10:41:06.932Z</time>
      </trkpt>
      <trkpt lat="45.601888" lon="7.526128">
        <ele>2573.852888</ele>
        <time>2022-11-14T10:41:21.951Z</time>
      </trkpt>
      <trkpt lat="45.601544" lon="7.525699">
        <ele>2574.572160</ele>
        <time>2022-11-14T10:42:24.314Z</time>
      </trkpt>
      <trkpt lat="45.601351" lon="7.525656">
        <ele>2574.698074</ele>
        <time>2022-11-14T10:42:49.173Z</time>
      </trkpt>
      <trkpt lat="45.601287" lon="7.525485">
        <ele>2574.768860</ele>
        <time>2022-11-14T10:43:08.216Z</time>
      </trkpt>
      <trkpt lat="45.601029" lon="7.525313">
        <ele>2574.917380</ele>
        <time>2022-11-14T10:43:45.025Z</time>
      </trkpt>
      <trkpt lat="45.600986" lon="7.525184">
        <ele>2574.969537</ele>
        <time>2022-11-14T10:43:58.447Z</time>
      </trkpt>
      <trkpt lat="45.600579" lon="7.524991">
        <ele>2575.193251</ele>
        <time>2022-11-14T10:44:52.387Z</time>
      </trkpt>
      <trkpt lat="45.600459" lon="7.524648">
        <ele>2575.333230</ele>
        <time>2022-11-14T10:45:26.623Z</time>
      </trkpt>
      <trkpt lat="45.600493" lon="7.524369">
        <ele>2575.436602</ele>
        <time>2022-11-14T10:45:52.580Z</time>
      </trkpt>
      <trkpt lat="45.600817" lon="7.523799">
        <ele>2575.284690</ele>
        <time>2022-11-14T10:46:57.195Z</time>
      </trkpt>
      <trkpt lat="45.601025" lon="7.523544">
        <ele>2575.048260</ele>
        <time>2022-11-14T10:47:32.604Z</time>
      </trkpt>
      <trkpt lat="45.601042" lon="7.523337">
        <ele>2574.922448</ele>
        <time>2022-11-14T10:47:51.009Z</time>
      </trkpt>
      <trkpt lat="45.601405" lon="7.522661">
        <ele>2574.408054</ele>
        <time>2022-11-14T10:49:08.150Z</time>
      </trkpt>
      <trkpt lat="45.601584" lon="7.522135">
        <ele>2574.054973</ele>
        <time>2022-11-14T10:49:59.617Z</time>
      </trkpt>
      <trkpt lat="45.601893" lon="7.521969">
        <ele>2573.994580</ele>
        <time>2022-11-14T10:50:41.051Z</time>
      </trkpt>
      <trkpt lat="45.602079" lon="7.521950">
        <ele>2573.994580</ele>
        <time>2022-11-14T10:51:04.381Z</time>
      </trkpt>
      <trkpt lat="45.602166" lon="7.521856">
        <ele>2573.994580</ele>
        <time>2022-11-14T10:51:17.975Z</time>
      </trkpt>
      <trkpt lat="45.602231" lon="7.521644">
        <ele>2573.994580</ele>
        <time>2022-11-14T10:51:38.351Z</time>
      </trkpt>
      <trkpt lat="45.602227" lon="7.521504">
        <ele>2573.994580</ele>
        <time>2022-11-14T10:51:50.648Z</time>
      </trkpt>
      <trkpt lat="45.602473" lon="7.521496">
        <ele>2573.994580</ele>
        <time>2022-11-14T10:52:15.390Z</time>
      </trkpt>
      <trkpt lat="45.602594" lon="7.521428">
        <ele>2573.994580</ele>
        <time>2022-11-14T10:52:28.443Z</time>
      </trkpt>
    </trkseg>
  </trk>
</gpx>